createdAt,value
2022-11-09T00:00:51.513Z,1.83
2022-11-09T00:03:19.019Z,1.50
2022-11-09T00:05:58.371Z,1.75
2022-11-09T00:08:26.078Z,1.70
2022-11-09T00:10:53.257Z,1.60
2022-11-09T00:13:20.629Z,1.90
2022-11-09T00:15:47.847Z,1.90
2022-11-09T00:18:15.002Z,1.40
2022-11-09T00:20:47.578Z,1.75
2022-11-09T00:23:16.643Z,1.60
2022-11-09T00:25:44.043Z,1.70
2022-11-09T00:28:11.174Z,1.45
2022-11-09T00:30:38.193Z,1.70
2022-11-09T00:33:05.220Z,1.80
2022-11-09T00:35:32.590Z,1.98
2022-11-09T00:37:59.740Z,1.73
2022-11-09T00:40:27.140Z,1.90
2022-11-09T00:42:54.312Z,1.60
2022-11-09T00:45:21.348Z,2.00
2022-11-09T00:47:48.390Z,1.70
2022-11-09T00:50:15.630Z,1.90
2022-11-09T00:52:43.156Z,2.08
2022-11-09T00:55:10.395Z,2.15
2022-11-09T00:57:37.546Z,1.65
2022-11-09T01:00:05.267Z,2.20
2022-11-09T01:02:32.368Z,1.73
2022-11-09T01:05:00.259Z,2.10
2022-11-09T01:07:27.364Z,1.60
2022-11-09T01:09:54.788Z,1.90
2022-11-09T01:12:21.869Z,1.77
2022-11-09T01:14:49.079Z,1.98
2022-11-09T01:17:16.196Z,1.90
2022-11-09T01:19:43.372Z,1.48
2022-11-09T01:22:10.415Z,1.77
2022-11-09T01:24:37.521Z,1.48
2022-11-09T01:27:04.657Z,1.70
2022-11-09T01:29:34.021Z,1.70
2022-11-09T01:32:01.098Z,1.88
2022-11-09T01:34:29.840Z,1.70
2022-11-09T01:36:56.897Z,1.60
2022-11-09T01:39:23.925Z,1.67
2022-11-09T01:41:50.978Z,2.10
2022-11-09T01:44:20.235Z,1.60
2022-11-09T01:46:52.480Z,1.85
2022-11-09T01:49:56.511Z,1.40
2022-11-09T01:52:32.982Z,1.50
2022-11-09T01:55:06.428Z,1.60
2022-11-09T01:57:59.818Z,1.80
2022-11-09T02:00:26.884Z,1.88
2022-11-09T02:02:59.534Z,1.55
2022-11-09T02:05:33.344Z,1.30
2022-11-09T02:08:02.306Z,1.50
2022-11-09T02:11:05.996Z,1.77
2022-11-09T02:13:34.275Z,1.50
2022-11-09T02:16:01.815Z,1.60
2022-11-09T02:18:30.851Z,1.75
2022-11-09T02:20:59.059Z,1.65
2022-11-09T02:23:27.101Z,1.75
2022-11-09T02:26:01.633Z,1.42
2022-11-09T02:28:29.765Z,1.58
2022-11-09T02:30:58.326Z,1.70
2022-11-09T02:33:26.080Z,1.50
2022-11-09T02:35:53.157Z,1.38
2022-11-09T02:38:20.346Z,1.52
2022-11-09T02:40:50.332Z,1.90
2022-11-09T02:43:19.426Z,1.80
2022-11-09T02:45:46.746Z,1.60
2022-11-09T02:48:13.967Z,1.58
2022-11-09T02:50:41.161Z,1.90
2022-11-09T02:53:08.332Z,1.75
2022-11-09T02:55:35.531Z,1.90
2022-11-09T02:58:02.601Z,1.60
2022-11-09T03:00:29.684Z,1.90
2022-11-09T03:02:57.013Z,1.67
2022-11-09T03:05:24.086Z,1.80
2022-11-09T03:07:51.253Z,1.63
2022-11-09T03:10:18.742Z,2.10
2022-11-09T03:12:45.776Z,2.00
2022-11-09T03:15:12.889Z,1.80
2022-11-09T03:17:39.982Z,1.67
2022-11-09T03:20:07.811Z,1.88
2022-11-09T03:22:34.897Z,1.70
2022-11-09T03:25:01.868Z,1.73
2022-11-09T03:27:28.940Z,1.80
2022-11-09T03:29:55.993Z,1.70
2022-11-09T03:32:23.060Z,1.80
2022-11-09T03:34:51.705Z,1.60
2022-11-09T03:37:18.910Z,1.60
2022-11-09T03:39:46.109Z,1.42
2022-11-09T03:42:13.103Z,1.60
2022-11-09T03:44:40.136Z,1.90
2022-11-09T03:47:07.274Z,2.03
2022-11-09T03:49:34.301Z,1.67
2022-11-09T03:52:01.393Z,1.80
2022-11-09T03:54:28.391Z,1.80
2022-11-09T03:56:55.598Z,1.83
2022-11-09T03:59:22.636Z,1.80
2022-11-09T04:01:49.873Z,1.80
2022-11-09T04:04:17.094Z,1.70
2022-11-09T04:06:44.288Z,1.55
2022-11-09T04:09:11.543Z,1.95
2022-11-09T04:11:38.602Z,1.58
2022-11-09T04:14:05.734Z,1.90
2022-11-09T04:16:33.439Z,1.38
2022-11-09T04:19:00.554Z,1.35
2022-11-09T04:21:27.581Z,1.52
2022-11-09T04:23:54.571Z,1.38
2022-11-09T04:26:21.637Z,1.33
2022-11-09T04:28:48.631Z,1.48
2022-11-09T04:31:15.685Z,1.55
2022-11-09T04:33:42.924Z,1.63
2022-11-09T04:36:10.148Z,1.75
2022-11-09T04:38:37.283Z,1.20
2022-11-09T04:41:05.136Z,1.52
2022-11-09T04:43:32.327Z,1.30
2022-11-09T04:46:03.470Z,1.55
2022-11-09T04:48:31.795Z,1.45
2022-11-09T04:51:07.689Z,1.55
2022-11-09T04:53:35.576Z,1.35
2022-11-09T04:56:02.991Z,1.38
2022-11-09T04:58:30.592Z,1.67
2022-11-09T05:01:06.908Z,1.60
2022-11-09T05:03:34.585Z,1.60
2022-11-09T05:06:02.038Z,1.45
2022-11-09T05:08:29.196Z,1.63
2022-11-09T05:10:59.576Z,1.42
2022-11-09T05:13:26.764Z,1.30
2022-11-09T05:15:53.886Z,1.60
2022-11-09T05:18:21.009Z,1.48
2022-11-09T05:20:48.708Z,1.27
2022-11-09T05:23:34.257Z,1.55
2022-11-09T05:26:01.519Z,1.40
2022-11-09T05:28:28.740Z,1.30
2022-11-09T05:30:55.939Z,1.40
2022-11-09T05:33:23.383Z,1.50
2022-11-09T05:35:50.711Z,1.25
2022-11-09T05:38:19.907Z,1.25
2022-11-09T05:40:49.589Z,1.65
2022-11-09T05:43:17.087Z,1.50
2022-11-09T05:45:44.900Z,1.20
2022-11-09T05:48:13.600Z,1.40
2022-11-09T05:50:41.478Z,1.20
2022-11-09T05:53:09.276Z,1.27
2022-11-09T05:55:36.539Z,1.38
2022-11-09T05:58:03.832Z,1.55
2022-11-09T06:00:31.340Z,1.20
2022-11-09T06:03:05.986Z,1.45
2022-11-09T06:05:34.543Z,1.17
2022-11-09T06:08:06.034Z,1.42
2022-11-09T06:10:33.937Z,1.10
2022-11-09T06:13:01.125Z,1.30
2022-11-09T06:15:28.461Z,1.33
2022-11-09T06:17:56.967Z,1.25
2022-11-09T06:20:25.067Z,1.35
2022-11-09T06:23:03.499Z,1.40
2022-11-09T06:25:32.620Z,1.35
2022-11-09T06:27:59.876Z,1.15
2022-11-09T06:30:27.144Z,1.30
2022-11-09T06:33:01.695Z,1.33
2022-11-09T06:35:29.652Z,1.33
2022-11-09T06:37:58.569Z,1.35
2022-11-09T06:40:25.864Z,1.40
2022-11-09T06:42:53.204Z,1.33
2022-11-09T06:45:20.268Z,1.55
2022-11-09T06:47:47.398Z,1.48
2022-11-09T06:50:14.773Z,1.27
2022-11-09T06:52:41.827Z,1.50
2022-11-09T06:55:09.488Z,1.40
2022-11-09T06:57:36.516Z,1.30
2022-11-09T07:00:05.261Z,1.35
2022-11-09T07:02:32.446Z,1.70
2022-11-09T07:04:59.490Z,1.30
2022-11-09T07:07:28.427Z,1.15
2022-11-09T07:09:56.055Z,1.50
2022-11-09T07:12:23.695Z,1.27
2022-11-09T07:14:50.885Z,1.42
2022-11-09T07:17:18.301Z,1.40
2022-11-09T07:19:45.882Z,1.50
2022-11-09T07:22:13.024Z,1.40
2022-11-09T07:24:40.103Z,1.30
2022-11-09T07:27:07.348Z,1.80
2022-11-09T07:29:34.527Z,1.10
2022-11-09T07:32:01.792Z,1.90
2022-11-09T07:34:29.025Z,1.40
2022-11-09T07:36:56.481Z,1.60
2022-11-09T07:39:23.738Z,1.52
2022-11-09T07:41:51.464Z,1.23
2022-11-09T07:44:19.163Z,1.55
2022-11-09T07:46:50.110Z,1.60
2022-11-09T07:49:17.981Z,1.50
2022-11-09T07:51:45.141Z,1.60
2022-11-09T07:54:12.340Z,1.38
2022-11-09T07:56:39.626Z,1.70
2022-11-09T07:59:06.944Z,1.40
2022-11-09T08:01:34.361Z,1.50
2022-11-09T08:04:01.734Z,1.45
2022-11-09T08:06:29.361Z,1.27
2022-11-09T08:08:57.894Z,1.88
2022-11-09T08:11:25.480Z,1.60
2022-11-09T08:13:53.218Z,1.50
2022-11-09T08:16:20.355Z,1.38
2022-11-09T08:18:48.619Z,1.30
2022-11-09T08:21:15.853Z,1.45
2022-11-09T08:23:43.412Z,1.65
2022-11-09T08:26:11.587Z,1.52
2022-11-09T08:28:39.275Z,1.27
2022-11-09T08:31:09.720Z,1.42
2022-11-09T08:33:42.573Z,1.55
2022-11-09T08:36:12.080Z,1.40
2022-11-09T08:38:39.569Z,1.70
2022-11-09T08:41:12.066Z,1.60
2022-11-09T08:43:40.763Z,1.60
2022-11-09T08:46:08.191Z,1.65
2022-11-09T08:48:35.338Z,1.58
2022-11-09T08:51:02.512Z,2.28
2022-11-09T08:53:30.543Z,1.58
2022-11-09T08:55:58.149Z,1.67
2022-11-09T08:58:25.350Z,1.67
2022-11-09T09:00:52.612Z,2.03
2022-11-09T09:03:19.804Z,1.60
2022-11-09T09:05:46.993Z,1.27
2022-11-09T09:08:15.988Z,2.03
2022-11-09T09:10:43.654Z,1.73
2022-11-09T09:13:11.088Z,1.67
2022-11-09T09:15:38.254Z,1.83
2022-11-09T09:18:05.969Z,1.40
2022-11-09T09:20:33.550Z,1.52
2022-11-09T09:23:01.291Z,1.90
2022-11-09T09:25:29.806Z,1.60
2022-11-09T09:27:57.152Z,1.75
2022-11-09T09:30:24.277Z,1.70
2022-11-09T09:32:51.535Z,1.38
2022-11-09T09:35:18.717Z,1.20
2022-11-09T09:37:45.851Z,1.20
2022-11-09T09:40:43.907Z,1.15
2022-11-09T09:43:17.919Z,1.50
2022-11-09T09:45:50.709Z,1.45
2022-11-09T09:48:40.987Z,1.55
2022-11-09T09:51:40.286Z,1.20
2022-11-09T09:54:23.036Z,1.50
2022-11-09T09:56:52.586Z,1.90
2022-11-09T09:59:44.844Z,1.17
2022-11-09T10:02:30.261Z,1.65
2022-11-09T10:05:00.605Z,1.35
2022-11-09T10:07:51.733Z,1.40
2022-11-09T10:10:46.976Z,1.90
2022-11-09T10:13:42.477Z,1.25
2022-11-09T10:16:30.256Z,1.35
2022-11-09T10:19:19.743Z,1.60
2022-11-09T10:22:05.610Z,1.38
2022-11-09T10:25:12.220Z,1.33
2022-11-09T10:27:53.057Z,1.35
2022-11-09T10:30:22.558Z,1.10
2022-11-09T10:32:54.701Z,1.30
2022-11-09T10:35:36.151Z,1.00
2022-11-09T10:38:03.466Z,1.05
2022-11-09T10:40:52.103Z,1.20
2022-11-09T10:43:19.416Z,1.00
2022-11-09T10:45:58.252Z,1.30
2022-11-09T10:48:36.053Z,1.02
2022-11-09T10:51:03.973Z,1.00
2022-11-09T10:53:33.766Z,0.85
2022-11-09T10:56:21.339Z,1.27
2022-11-09T10:58:53.829Z,1.10
2022-11-09T11:01:23.446Z,1.30
2022-11-09T11:03:54.135Z,1.38
2022-11-09T11:06:21.300Z,1.45
2022-11-09T11:08:52.608Z,1.42
2022-11-09T11:11:34.200Z,1.23
2022-11-09T11:14:17.166Z,1.02
2022-11-09T11:16:47.900Z,1.00
2022-11-09T11:19:38.097Z,0.90
2022-11-09T11:22:20.713Z,1.30
2022-11-09T11:24:53.679Z,1.25
2022-11-09T11:27:48.364Z,1.17
2022-11-09T11:30:23.199Z,1.15
2022-11-09T11:32:51.112Z,1.33
2022-11-09T11:35:29.838Z,1.63
2022-11-09T11:38:35.315Z,1.27
2022-11-09T11:41:11.702Z,1.10
2022-11-09T11:44:03.493Z,1.60
2022-11-09T11:47:02.125Z,1.38
2022-11-09T11:49:43.844Z,1.23
2022-11-09T11:52:35.892Z,1.58
2022-11-09T11:55:19.623Z,1.33
2022-11-09T11:58:07.060Z,1.63
2022-11-09T12:00:45.898Z,1.20
2022-11-09T12:03:40.391Z,1.30
2022-11-09T12:06:27.473Z,1.52
2022-11-09T12:09:03.038Z,1.40
2022-11-09T12:11:42.021Z,1.30
2022-11-09T12:14:24.455Z,1.80
2022-11-09T12:17:07.880Z,1.38
2022-11-09T12:19:40.829Z,1.42
2022-11-09T12:22:19.653Z,1.00
2022-11-09T12:24:58.990Z,1.63
2022-11-09T12:28:00.029Z,1.30
2022-11-09T12:30:40.460Z,1.58
2022-11-09T12:33:15.398Z,1.52
2022-11-09T12:35:48.667Z,1.67
2022-11-09T12:38:27.482Z,1.13
2022-11-09T12:41:02.439Z,1.20
2022-11-09T12:43:35.059Z,1.75
2022-11-09T12:46:05.538Z,1.63
2022-11-09T12:48:35.514Z,1.45
2022-11-09T12:51:05.477Z,1.52
2022-11-09T12:53:37.642Z,1.30
2022-11-09T12:56:17.429Z,1.63
2022-11-09T12:58:45.426Z,1.50
2022-11-09T13:01:32.126Z,1.60
2022-11-09T13:04:02.267Z,1.77
2022-11-09T13:06:31.695Z,1.23
2022-11-09T13:09:08.249Z,1.00
2022-11-09T13:11:49.953Z,1.40
2022-11-09T13:14:23.232Z,1.50
2022-11-09T13:16:52.459Z,1.43
2022-11-09T13:19:35.041Z,1.15
2022-11-09T13:22:03.775Z,2.10
2022-11-09T13:24:30.860Z,1.30
2022-11-09T13:27:02.131Z,1.55
2022-11-09T13:29:41.298Z,1.50
2022-11-09T13:32:11.308Z,1.23
2022-11-09T13:34:46.442Z,1.75
2022-11-09T13:37:41.546Z,1.58
2022-11-09T13:40:42.544Z,1.65
2022-11-09T13:43:12.566Z,1.33
2022-11-09T13:45:51.734Z,1.50
2022-11-09T13:48:39.809Z,1.30
2022-11-09T13:51:13.148Z,1.73
2022-11-09T13:53:54.299Z,1.80
2022-11-09T13:56:29.359Z,1.45
2022-11-09T13:59:17.361Z,1.27
2022-11-09T14:01:55.909Z,1.40
2022-11-09T14:04:25.269Z,1.20
2022-11-09T14:07:25.119Z,1.48
2022-11-09T14:10:07.159Z,1.30
2022-11-09T14:12:34.362Z,1.20
2022-11-09T14:15:16.413Z,1.25
2022-11-09T14:18:12.822Z,1.60
2022-11-09T14:21:18.483Z,1.20
2022-11-09T14:23:46.000Z,1.27
2022-11-09T14:26:23.991Z,1.30
2022-11-09T14:28:51.190Z,1.13
2022-11-09T14:31:24.190Z,1.40
2022-11-09T14:34:02.576Z,1.23
2022-11-09T14:36:32.081Z,1.10
2022-11-09T14:39:05.922Z,1.40
2022-11-09T14:41:33.737Z,0.88
2022-11-09T14:44:01.366Z,1.25
2022-11-09T14:46:31.875Z,1.20
2022-11-09T14:49:02.307Z,1.40
2022-11-09T14:51:34.469Z,1.35
2022-11-09T14:54:03.333Z,1.15
2022-11-09T14:56:31.422Z,1.02
2022-11-09T14:58:59.181Z,1.38
2022-11-09T15:01:28.493Z,1.23
2022-11-09T15:04:13.727Z,1.25
2022-11-09T15:06:51.380Z,1.23
2022-11-09T15:09:24.243Z,1.15
2022-11-09T15:11:52.146Z,1.33
2022-11-09T15:14:35.016Z,1.30
2022-11-09T15:17:25.352Z,1.10
2022-11-09T15:19:59.318Z,1.27
2022-11-09T15:22:48.497Z,1.48
2022-11-09T15:25:30.601Z,1.80
2022-11-09T15:28:10.251Z,1.40
2022-11-09T15:30:54.108Z,1.45
2022-11-09T15:33:29.112Z,1.38
2022-11-09T15:35:59.562Z,0.93
2022-11-09T15:38:39.970Z,1.40
2022-11-09T15:41:16.460Z,1.42
2022-11-09T15:43:44.310Z,1.15
2022-11-09T15:46:21.575Z,1.58
2022-11-09T15:48:48.899Z,1.60
2022-11-09T15:51:17.018Z,2.22
2022-11-09T15:53:44.314Z,1.67
2022-11-09T15:56:20.477Z,1.27
2022-11-09T15:58:49.439Z,1.58
2022-11-09T16:01:17.107Z,1.98
2022-11-09T16:03:44.425Z,1.38
2022-11-09T16:06:14.806Z,1.33
2022-11-09T16:08:42.025Z,1.63
2022-11-09T16:11:10.829Z,2.10
2022-11-09T16:13:38.103Z,2.08
2022-11-09T16:16:07.758Z,2.42
2022-11-09T16:18:35.884Z,2.08
2022-11-09T16:21:14.177Z,1.60
2022-11-09T16:23:41.549Z,1.83
2022-11-09T16:26:11.606Z,2.15
2022-11-09T16:28:40.408Z,2.20
2022-11-09T16:31:08.297Z,1.75
2022-11-09T16:33:36.362Z,2.42
2022-11-09T16:36:08.845Z,2.47
2022-11-09T16:38:41.199Z,2.70
2022-11-09T16:41:09.642Z,2.08
2022-11-09T16:43:38.858Z,1.25
2022-11-09T16:46:06.631Z,1.63
2022-11-09T16:48:34.919Z,1.80
2022-11-09T16:51:02.616Z,3.05
2022-11-09T16:53:30.117Z,1.88
2022-11-09T16:55:57.607Z,1.80
2022-11-09T16:58:24.807Z,2.75
2022-11-09T17:03:39.695Z,2.13
2022-11-09T17:06:11.381Z,4.03
2022-11-09T17:08:43.559Z,6.28
2022-11-09T17:11:13.428Z,3.28
2022-11-09T17:13:41.282Z,2.13
2022-11-09T17:16:11.550Z,2.67
2022-11-09T17:18:38.894Z,1.88
2022-11-09T17:21:14.667Z,2.20
2022-11-09T17:23:43.517Z,1.85
2022-11-09T17:26:11.548Z,1.80
2022-11-09T17:28:42.946Z,1.48
2022-11-09T17:31:22.137Z,1.83
2022-11-09T17:33:49.607Z,2.00
2022-11-09T17:36:29.937Z,1.50
2022-11-09T17:39:02.411Z,1.90
2022-11-09T17:41:29.685Z,2.30
2022-11-09T17:43:56.833Z,2.10
2022-11-09T17:46:24.413Z,2.58
2022-11-09T17:48:51.711Z,1.67
2022-11-09T17:51:20.460Z,1.70
2022-11-09T17:53:47.952Z,2.05
2022-11-09T17:56:15.595Z,2.00
2022-11-09T17:58:44.387Z,1.77
2022-11-09T18:01:17.816Z,1.70
2022-11-09T18:03:45.294Z,1.70
2022-11-09T18:06:15.599Z,1.42
2022-11-09T18:08:44.043Z,1.98
2022-11-09T18:11:12.171Z,1.88
2022-11-09T18:13:39.861Z,1.80
2022-11-09T18:16:12.178Z,2.08
2022-11-09T18:18:43.601Z,1.98
2022-11-09T18:21:16.921Z,1.70
2022-11-09T18:23:45.271Z,1.70
2022-11-09T18:26:13.609Z,1.60
2022-11-09T18:28:40.904Z,1.50
2022-11-09T18:31:13.508Z,1.95
2022-11-09T18:33:41.619Z,2.15
2022-11-09T18:36:12.623Z,1.65
2022-11-09T18:38:40.471Z,1.63
2022-11-09T18:41:14.921Z,1.60
2022-11-09T18:43:42.592Z,1.60
2022-11-09T18:46:15.742Z,2.15
2022-11-09T18:48:43.847Z,1.90
2022-11-09T18:51:13.447Z,1.80
2022-11-09T18:53:43.455Z,1.77
2022-11-09T18:56:19.323Z,1.80
2022-11-09T18:58:46.775Z,1.83
2022-11-09T19:01:14.676Z,2.15
2022-11-09T19:03:42.011Z,2.35
2022-11-09T19:06:15.314Z,2.20
2022-11-09T19:09:01.146Z,1.87
2022-11-09T19:11:28.855Z,1.95
2022-11-09T19:13:57.022Z,1.73
2022-11-09T19:16:29.003Z,2.00
2022-11-09T19:18:58.940Z,1.90
2022-11-09T19:21:37.603Z,1.75
2022-11-09T19:24:05.342Z,1.95
2022-11-09T19:26:32.856Z,2.05
2022-11-09T19:29:00.087Z,1.83
2022-11-09T19:31:28.544Z,1.75
2022-11-09T19:33:55.876Z,1.98
2022-11-09T19:36:31.451Z,1.80
2022-11-09T19:38:59.799Z,1.63
2022-11-09T19:41:27.609Z,1.73
2022-11-09T19:43:58.734Z,1.80
2022-11-09T19:46:28.031Z,1.70
2022-11-09T19:48:55.090Z,1.70
2022-11-09T19:51:22.960Z,1.90
2022-11-09T19:53:55.044Z,1.65
2022-11-09T19:56:24.336Z,1.80
2022-11-09T19:58:55.497Z,1.50
2022-11-09T20:01:23.655Z,1.75
2022-11-09T20:03:53.781Z,2.33
2022-11-09T20:06:22.273Z,1.80
2022-11-09T20:08:49.844Z,1.75
2022-11-09T20:11:38.315Z,1.85
2022-11-09T20:14:07.075Z,1.77
2022-11-09T20:16:35.830Z,1.83
2022-11-09T20:19:06.687Z,1.77
2022-11-09T20:21:34.158Z,1.92
2022-11-09T20:24:01.379Z,3.65
2022-11-09T20:26:28.957Z,2.00
2022-11-09T20:28:57.025Z,2.20
2022-11-09T20:31:24.809Z,1.90
2022-11-09T20:33:52.710Z,2.05
2022-11-09T20:36:19.968Z,2.10
2022-11-09T20:38:48.948Z,2.08
2022-11-09T20:41:24.256Z,2.10
2022-11-09T20:43:52.891Z,2.15
2022-11-09T20:46:22.920Z,1.80
2022-11-09T20:48:55.435Z,1.75
2022-11-09T20:51:24.777Z,2.45
2022-11-09T20:53:53.569Z,1.67
2022-11-09T20:56:21.385Z,1.98
2022-11-09T20:58:48.799Z,1.73
2022-11-09T21:01:17.493Z,1.90
2022-11-09T21:03:46.337Z,2.10
2022-11-09T21:06:14.218Z,2.08
2022-11-09T21:08:47.499Z,1.70
2022-11-09T21:11:14.922Z,2.28
2022-11-09T21:13:44.276Z,2.10
2022-11-09T21:16:14.332Z,1.73
2022-11-09T21:18:42.300Z,2.40
2022-11-09T21:21:16.873Z,2.40
2022-11-09T21:24:03.742Z,2.03
2022-11-09T21:26:50.048Z,2.08
2022-11-09T21:29:41.891Z,1.80
2022-11-09T21:32:12.296Z,1.65
2022-11-09T21:34:42.570Z,1.88
2022-11-09T21:37:10.465Z,1.90
2022-11-09T21:39:38.466Z,2.20
2022-11-09T21:42:05.820Z,2.08
2022-11-09T21:44:34.477Z,1.98
2022-11-09T21:47:02.709Z,1.75
2022-11-09T21:49:30.207Z,2.28
2022-11-09T21:51:57.731Z,1.80
2022-11-09T21:54:25.780Z,2.22
2022-11-09T21:56:53.370Z,2.10
2022-11-09T21:59:21.037Z,1.83
2022-11-09T23:28:14.835Z,2.60
2022-11-09T23:30:42.138Z,1.98
2022-11-09T23:33:09.914Z,2.40
2022-11-09T23:35:37.710Z,2.28
2022-11-09T23:38:06.780Z,2.00
2022-11-09T23:40:35.941Z,2.17
2022-11-09T23:43:08.845Z,2.00
2022-11-09T23:45:37.547Z,2.33
2022-11-09T23:48:05.991Z,2.20
2022-11-09T23:50:33.792Z,2.47
2022-11-09T23:53:01.356Z,2.30
2022-11-09T23:55:30.009Z,2.15
2022-11-09T23:57:57.476Z,2.58
